createdAt,value
2023-03-31T00:02:13.324Z,96274.16
2023-03-31T00:04:46.291Z,96275.13
2023-03-31T00:07:16.214Z,96262.69
2023-03-31T00:09:46.261Z,96273.03
2023-03-31T00:12:14.394Z,96274.31
2023-03-31T00:14:41.243Z,96254.91
2023-03-31T00:17:08.756Z,96262.09
2023-03-31T00:19:35.923Z,96267.19
2023-03-31T00:22:02.517Z,96272.13
2023-03-31T00:24:33.007Z,96266.06
2023-03-31T00:27:00.601Z,96259.78
2023-03-31T00:29:27.096Z,96259.25
2023-03-31T00:31:55.174Z,96258.91
2023-03-31T00:34:22.129Z,96250.16
2023-03-31T00:36:48.626Z,96243.66
2023-03-31T00:39:18.058Z,96247.41
2023-03-31T00:41:44.955Z,96233.19
2023-03-31T00:44:29.265Z,96232.03
2023-03-31T00:47:03.696Z,96225.84
2023-03-31T00:49:47.252Z,96221.78
2023-03-31T00:52:21.557Z,96221.34
2023-03-31T00:54:51.726Z,96227.88
2023-03-31T00:57:18.394Z,96215.31
2023-03-31T00:59:52.054Z,96224.09
2023-03-31T01:02:22.495Z,96215.63
2023-03-31T01:04:55.069Z,96224.31
2023-03-31T01:07:33.580Z,96228.69
2023-03-31T01:10:03.724Z,96220.88
2023-03-31T01:12:32.496Z,96219.06
2023-03-31T01:14:59.742Z,96209.88
2023-03-31T01:17:30.360Z,96208.06
2023-03-31T01:20:22.728Z,96214.09
2023-03-31T01:23:11.850Z,96215.06
2023-03-31T01:25:50.293Z,96193.28
2023-03-31T01:28:31.453Z,96190.19
2023-03-31T01:31:22.818Z,96199.91
2023-03-31T01:33:55.022Z,96204.13
2023-03-31T01:36:36.312Z,96182.84
2023-03-31T01:39:11.680Z,96171.13
2023-03-31T01:41:48.611Z,96166.56
2023-03-31T01:44:41.513Z,96161.28
2023-03-31T01:47:18.401Z,96162.75
2023-03-31T01:49:55.217Z,96170.75
2023-03-31T01:52:36.784Z,96159.28
2023-03-31T01:55:19.343Z,96157.66
2023-03-31T01:57:52.756Z,96166.44
2023-03-31T02:00:33.324Z,96156.03
2023-03-31T02:03:10.811Z,96156.38
2023-03-31T02:05:43.999Z,96146.81
2023-03-31T02:08:39.870Z,96145.06
2023-03-31T02:11:06.447Z,96138.34
2023-03-31T02:13:35.045Z,96123.84
2023-03-31T02:16:07.177Z,96130.22
2023-03-31T02:18:38.299Z,96119.81
2023-03-31T02:21:06.667Z,96123.28
2023-03-31T02:23:34.474Z,96111.66
2023-03-31T02:26:18.817Z,96107.31
2023-03-31T02:28:45.511Z,96086.09
2023-03-31T02:31:49.599Z,96098.38
2023-03-31T02:34:16.759Z,96100.81
2023-03-31T02:36:45.695Z,96110.25
2023-03-31T02:39:17.704Z,96101.78
2023-03-31T02:41:44.503Z,96090.00
2023-03-31T02:44:11.587Z,96094.25
2023-03-31T02:46:39.484Z,96079.88
2023-03-31T02:49:08.703Z,96081.69
2023-03-31T02:52:08.059Z,96077.00
2023-03-31T02:55:01.350Z,96077.34
2023-03-31T02:58:06.266Z,96078.00
2023-03-31T03:00:54.384Z,96080.25
2023-03-31T03:03:43.989Z,96071.94
2023-03-31T03:06:55.020Z,96075.38
2023-03-31T03:09:30.042Z,96076.38
2023-03-31T03:12:13.454Z,96064.81
2023-03-31T03:14:44.910Z,96068.53
2023-03-31T03:17:17.354Z,96071.94
2023-03-31T03:19:43.924Z,96070.63
2023-03-31T03:22:10.515Z,96052.66
2023-03-31T03:24:36.953Z,96047.25
2023-03-31T03:27:03.422Z,96048.50
2023-03-31T03:29:29.905Z,96043.94
2023-03-31T03:31:56.490Z,96041.75
2023-03-31T03:34:22.927Z,96026.91
2023-03-31T03:36:49.360Z,96025.16
2023-03-31T03:39:15.984Z,96026.91
2023-03-31T03:41:42.375Z,96030.75
2023-03-31T03:44:09.184Z,96007.78
2023-03-31T03:46:35.751Z,95997.00
2023-03-31T03:49:02.283Z,95998.44
2023-03-31T03:51:28.824Z,95982.66
2023-03-31T03:53:55.251Z,95978.03
2023-03-31T03:56:22.083Z,95978.69
2023-03-31T03:58:48.498Z,95975.53
2023-03-31T04:01:14.926Z,95966.25
2023-03-31T04:03:41.771Z,95960.19
2023-03-31T04:06:08.542Z,95959.97
2023-03-31T04:08:35.450Z,95953.13
2023-03-31T04:11:01.882Z,95942.94
2023-03-31T04:13:28.617Z,95944.56
2023-03-31T04:15:55.075Z,95936.94
2023-03-31T04:18:24.095Z,95933.09
2023-03-31T04:21:04.657Z,95935.50
2023-03-31T04:23:38.473Z,95922.53
2023-03-31T04:26:08.780Z,95925.13
2023-03-31T04:28:36.741Z,95921.53
2023-03-31T04:31:06.215Z,95915.03
2023-03-31T04:33:34.758Z,95908.09
2023-03-31T04:36:07.052Z,95907.53
2023-03-31T04:38:33.797Z,95901.34
2023-03-31T04:41:00.472Z,95902.97
2023-03-31T04:43:26.887Z,95894.84
2023-03-31T04:45:53.373Z,95902.97
2023-03-31T04:48:19.909Z,95906.56
2023-03-31T04:50:46.945Z,95896.56
2023-03-31T04:53:14.111Z,95890.97
2023-03-31T04:55:40.564Z,95885.28
2023-03-31T04:58:06.999Z,95891.72
2023-03-31T05:00:33.894Z,95879.00
2023-03-31T05:03:00.513Z,95877.38
2023-03-31T05:05:27.469Z,95874.59
2023-03-31T05:07:53.877Z,95873.41
2023-03-31T05:10:20.851Z,95856.56
2023-03-31T05:12:47.313Z,95860.16
2023-03-31T05:15:13.720Z,95854.75
2023-03-31T05:17:40.260Z,95847.63
2023-03-31T05:20:08.323Z,95848.63
2023-03-31T05:22:36.742Z,95839.78
2023-03-31T05:25:05.466Z,95837.69
2023-03-31T05:27:32.642Z,95833.91
2023-03-31T05:29:59.456Z,95823.09
2023-03-31T05:32:27.477Z,95820.38
2023-03-31T05:34:57.800Z,95830.03
2023-03-31T05:37:25.311Z,95816.94
2023-03-31T05:39:52.335Z,95808.66
2023-03-31T05:42:19.905Z,95805.06
2023-03-31T05:44:46.663Z,95795.78
2023-03-31T05:47:13.604Z,95788.81
2023-03-31T05:49:40.948Z,95777.28
2023-03-31T05:52:08.610Z,95771.66
2023-03-31T05:54:35.265Z,95770.69
2023-03-31T05:57:01.806Z,95771.66
2023-03-31T05:59:29.329Z,95770.88
2023-03-31T06:01:55.988Z,95765.63
2023-03-31T06:04:22.660Z,95761.19
2023-03-31T06:06:50.373Z,95767.25
2023-03-31T06:09:17.870Z,95757.47
2023-03-31T06:11:44.487Z,95749.03
2023-03-31T06:14:10.899Z,95754.44
2023-03-31T06:16:37.480Z,95754.88
2023-03-31T06:19:05.075Z,95748.03
2023-03-31T06:21:31.623Z,95751.09
2023-03-31T06:23:58.390Z,95728.69
2023-03-31T06:26:24.971Z,95729.66
2023-03-31T06:28:51.489Z,95732.56
2023-03-31T06:31:20.737Z,95735.25
2023-03-31T06:33:47.917Z,95727.03
2023-03-31T06:36:17.773Z,95724.84
2023-03-31T06:38:45.302Z,95726.28
2023-03-31T06:41:13.692Z,95719.34
2023-03-31T06:43:40.325Z,95717.53
2023-03-31T06:46:07.874Z,95713.19
2023-03-31T06:48:34.702Z,95716.63
2023-03-31T06:51:03.831Z,95716.69
2023-03-31T06:53:30.704Z,95715.91
2023-03-31T06:55:57.433Z,95715.91
2023-03-31T06:58:23.965Z,95711.06
2023-03-31T07:00:50.784Z,95704.91
2023-03-31T07:03:18.753Z,95707.94
2023-03-31T07:05:50.262Z,95707.88
2023-03-31T07:08:17.780Z,95709.50
2023-03-31T07:10:47.412Z,95715.56
2023-03-31T07:13:17.466Z,95713.13
2023-03-31T07:15:47.225Z,95721.75
2023-03-31T07:18:15.692Z,95720.41
2023-03-31T07:20:43.193Z,95720.91
2023-03-31T07:23:09.881Z,95720.63
2023-03-31T07:25:36.681Z,95727.88
2023-03-31T07:28:05.038Z,95722.72
2023-03-31T07:30:32.041Z,95729.56
2023-03-31T07:32:59.038Z,95721.91
2023-03-31T07:35:25.876Z,95721.53
2023-03-31T07:37:52.543Z,95723.09
2023-03-31T07:40:29.736Z,95717.03
2023-03-31T07:42:56.987Z,95716.75
2023-03-31T07:45:26.186Z,95712.56
2023-03-31T07:47:53.490Z,95708.84
2023-03-31T07:50:21.463Z,95705.88
2023-03-31T07:52:47.971Z,95709.59
2023-03-31T07:55:14.807Z,95701.81
2023-03-31T07:57:42.114Z,95696.22
2023-03-31T08:00:12.191Z,95691.88
2023-03-31T08:02:43.125Z,95697.31
2023-03-31T08:05:12.035Z,95693.47
2023-03-31T08:07:40.011Z,95683.84
2023-03-31T08:10:09.079Z,95679.28
2023-03-31T08:12:35.947Z,95677.88
2023-03-31T08:15:02.632Z,95668.16
2023-03-31T08:17:29.112Z,95660.78
2023-03-31T08:19:55.565Z,95665.25
2023-03-31T08:22:23.535Z,95651.03
2023-03-31T08:24:50.165Z,95648.00
2023-03-31T08:27:17.124Z,95643.97
2023-03-31T08:29:43.604Z,95630.47
2023-03-31T08:32:10.109Z,95639.94
2023-03-31T08:34:38.093Z,95642.88
2023-03-31T08:37:05.845Z,95640.09
2023-03-31T08:39:32.557Z,95630.47
2023-03-31T08:42:05.469Z,95633.91
2023-03-31T08:44:40.237Z,95628.66
2023-03-31T08:47:14.233Z,95623.22
2023-03-31T08:49:52.425Z,95626.19
2023-03-31T08:52:48.327Z,95621.44
2023-03-31T08:55:42.211Z,95623.13
2023-03-31T08:58:41.324Z,95616.88
2023-03-31T09:01:24.968Z,95614.00
2023-03-31T09:04:11.751Z,95617.06
2023-03-31T09:06:57.648Z,95617.59
2023-03-31T09:09:49.122Z,95626.06
2023-03-31T09:12:35.633Z,95632.84
2023-03-31T09:15:11.062Z,95614.97
2023-03-31T09:17:44.716Z,95603.84
2023-03-31T09:20:17.230Z,95608.84
2023-03-31T09:22:48.871Z,95583.22
2023-03-31T09:25:17.093Z,95575.41
2023-03-31T09:27:44.936Z,95546.63
2023-03-31T09:30:22.881Z,95440.81
2023-03-31T09:32:59.342Z,95441.44
2023-03-31T09:35:26.743Z,95459.75
2023-03-31T09:37:54.037Z,95461.00
2023-03-31T09:40:24.020Z,95469.69
2023-03-31T09:43:18.038Z,95483.00
2023-03-31T09:45:57.620Z,95497.91
2023-03-31T09:48:35.073Z,95498.50
2023-03-31T09:51:05.414Z,95494.28
2023-03-31T09:53:40.214Z,95505.16
2023-03-31T09:56:08.572Z,95499.50
2023-03-31T09:58:43.100Z,95508.03
2023-03-31T10:01:12.248Z,95501.16
2023-03-31T10:03:53.736Z,95509.63
2023-03-31T10:06:21.556Z,95498.13
2023-03-31T10:08:55.102Z,95502.56
2023-03-31T10:11:22.743Z,95502.13
2023-03-31T10:14:02.189Z,95501.94
2023-03-31T10:16:32.541Z,95494.44
2023-03-31T10:19:19.027Z,95497.03
2023-03-31T10:21:47.066Z,95487.69
2023-03-31T10:24:18.700Z,95477.59
2023-03-31T10:26:48.619Z,95475.44
2023-03-31T10:29:32.807Z,95461.03
2023-03-31T10:32:11.835Z,95451.13
2023-03-31T10:34:42.557Z,95454.28
2023-03-31T10:37:19.427Z,95449.44
2023-03-31T10:39:47.554Z,95447.59
2023-03-31T10:42:24.856Z,95440.59
2023-03-31T10:45:16.313Z,95440.97
2023-03-31T10:47:54.432Z,95432.31
2023-03-31T10:50:27.826Z,95451.81
2023-03-31T10:53:04.790Z,95436.88
2023-03-31T10:55:42.036Z,95441.72
2023-03-31T10:58:20.994Z,95449.81
2023-03-31T11:01:22.181Z,95445.00
2023-03-31T11:04:02.490Z,95429.97
2023-03-31T11:06:44.404Z,95431.97
2023-03-31T11:09:19.292Z,95427.66
2023-03-31T11:12:17.698Z,95420.53
2023-03-31T11:15:03.154Z,95420.03
2023-03-31T11:17:41.679Z,95409.50
2023-03-31T11:20:09.218Z,95395.47
2023-03-31T11:23:00.705Z,95386.72
2023-03-31T11:25:43.329Z,95383.34
2023-03-31T11:28:31.014Z,95382.09
2023-03-31T11:31:16.090Z,95374.41
2023-03-31T11:33:45.442Z,95368.56
2023-03-31T11:36:29.008Z,95375.16
2023-03-31T11:39:33.310Z,95362.88
2023-03-31T11:42:09.131Z,95354.88
2023-03-31T11:44:45.940Z,95335.13
2023-03-31T11:47:42.147Z,95342.81
2023-03-31T11:50:14.951Z,95340.72
2023-03-31T11:52:54.692Z,95345.72
2023-03-31T11:55:25.902Z,95330.78
2023-03-31T11:58:27.141Z,95314.34
2023-03-31T12:01:02.648Z,95318.72
2023-03-31T12:03:44.334Z,95311.13
2023-03-31T12:06:18.988Z,95304.38
2023-03-31T12:09:13.075Z,95313.72
2023-03-31T12:12:03.121Z,95308.94
2023-03-31T12:14:51.432Z,95322.53
2023-03-31T12:17:22.948Z,95313.28
2023-03-31T12:19:55.247Z,95294.34
2023-03-31T12:22:36.231Z,95302.66
2023-03-31T12:25:02.968Z,95304.09
2023-03-31T12:27:42.938Z,95297.25
2023-03-31T12:30:31.043Z,95303.28
2023-03-31T12:33:15.892Z,95328.16
2023-03-31T12:36:28.041Z,95306.13
2023-03-31T12:38:55.604Z,95363.13
2023-03-31T12:41:31.022Z,95363.66
2023-03-31T12:44:23.472Z,95389.19
2023-03-31T12:47:13.353Z,95388.47
2023-03-31T12:49:55.026Z,95389.66
2023-03-31T12:52:36.130Z,95383.25
2023-03-31T12:55:26.449Z,95358.03
2023-03-31T12:57:52.878Z,95367.94
2023-03-31T13:00:25.079Z,95375.19
2023-03-31T13:03:30.333Z,95371.09
2023-03-31T13:05:56.849Z,95381.56
2023-03-31T13:08:52.638Z,95362.41
2023-03-31T13:11:22.331Z,95356.25
2023-03-31T13:14:02.196Z,95343.56
2023-03-31T13:16:29.997Z,95345.47
2023-03-31T13:18:56.997Z,95330.72
2023-03-31T13:21:24.724Z,95325.81
2023-03-31T13:23:51.710Z,95324.00
2023-03-31T13:26:38.637Z,95311.38
2023-03-31T13:29:41.680Z,95298.66
2023-03-31T13:32:28.945Z,95289.75
2023-03-31T13:35:02.529Z,95286.28
2023-03-31T13:37:58.013Z,95282.22
2023-03-31T13:40:52.926Z,95283.75
2023-03-31T13:43:29.440Z,95267.09
2023-03-31T13:46:20.450Z,95277.91
2023-03-31T13:49:02.028Z,95277.72
2023-03-31T13:51:41.152Z,95310.06
2023-03-31T13:54:18.982Z,95331.84
2023-03-31T13:57:09.617Z,95361.59
2023-03-31T13:59:55.234Z,95389.75
2023-03-31T14:02:41.173Z,95403.63
2023-03-31T14:05:23.220Z,95403.38
2023-03-31T14:07:55.326Z,95403.25
2023-03-31T14:10:37.220Z,95342.53
2023-03-31T14:13:15.257Z,95333.28
2023-03-31T14:16:00.741Z,95330.34
2023-03-31T14:18:34.479Z,95332.34
2023-03-31T14:21:34.466Z,95324.75
2023-03-31T14:24:29.971Z,95326.25
2023-03-31T14:27:06.885Z,95319.91
2023-03-31T14:29:47.218Z,95312.59
2023-03-31T14:32:45.800Z,95312.91
2023-03-31T14:35:31.476Z,95298.81
2023-03-31T14:38:02.080Z,95287.41
2023-03-31T14:40:28.628Z,95288.19
2023-03-31T14:42:55.224Z,95270.53
2023-03-31T14:45:25.374Z,95274.59
2023-03-31T14:47:57.458Z,95273.03
2023-03-31T14:50:31.306Z,95262.88
2023-03-31T14:52:58.210Z,95265.59
2023-03-31T14:55:35.624Z,95267.22
2023-03-31T14:58:15.841Z,95261.69
2023-03-31T15:00:42.311Z,95269.72
2023-03-31T15:03:14.161Z,95264.03
2023-03-31T15:05:43.015Z,95262.34
2023-03-31T15:08:30.476Z,95259.56
2023-03-31T15:11:11.952Z,95274.91
2023-03-31T15:14:03.522Z,95279.50
2023-03-31T15:16:42.689Z,95287.53
2023-03-31T15:19:24.816Z,95267.34
2023-03-31T15:22:01.891Z,95268.00
2023-03-31T15:24:29.300Z,95275.78
2023-03-31T15:26:58.624Z,95283.78
2023-03-31T15:29:36.945Z,95278.69
2023-03-31T15:32:07.273Z,95277.94
2023-03-31T15:34:36.000Z,95263.94
2023-03-31T15:37:03.724Z,95268.88
2023-03-31T15:39:33.306Z,95276.56
2023-03-31T15:42:03.397Z,95255.66
2023-03-31T15:44:36.143Z,95265.44
2023-03-31T15:47:06.936Z,95261.16
2023-03-31T15:49:33.516Z,95262.22
2023-03-31T15:52:02.264Z,95260.41
2023-03-31T15:54:41.277Z,95247.69
2023-03-31T15:57:09.927Z,95254.19
2023-03-31T16:02:46.289Z,95263.16
2023-03-31T16:08:15.749Z,95250.97
2023-03-31T16:10:42.599Z,95248.94
2023-03-31T16:13:17.302Z,95247.19
2023-03-31T16:15:49.102Z,95263.66
2023-03-31T16:18:24.035Z,95250.94
2023-03-31T16:20:54.568Z,95236.72
2023-03-31T16:23:41.559Z,95241.47
2023-03-31T16:26:08.762Z,95234.44
2023-03-31T16:28:37.292Z,95236.81
2023-03-31T16:31:06.015Z,95237.84
2023-03-31T16:33:54.180Z,95228.41
2023-03-31T16:36:20.700Z,95237.66
2023-03-31T16:38:47.195Z,95230.06
2023-03-31T16:41:15.793Z,95225.28
2023-03-31T16:43:45.280Z,95240.09
2023-03-31T16:46:12.152Z,95240.66
2023-03-31T16:48:38.685Z,95233.63
2023-03-31T16:51:05.222Z,95231.44
2023-03-31T16:53:34.523Z,95240.28
2023-03-31T16:56:01.669Z,95240.16
2023-03-31T16:58:28.984Z,95240.03
2023-03-31T17:00:57.223Z,95241.81
2023-03-31T17:03:23.993Z,95249.16
2023-03-31T17:05:53.050Z,95257.66
2023-03-31T17:08:21.658Z,95241.91
2023-03-31T17:11:03.475Z,95242.69
2023-03-31T17:13:30.513Z,95255.53
2023-03-31T17:16:08.242Z,95258.88
2023-03-31T17:18:42.435Z,95262.09
2023-03-31T17:21:14.585Z,95264.84
2023-03-31T17:23:42.541Z,95259.63
2023-03-31T17:26:10.528Z,95269.34
2023-03-31T17:28:37.118Z,95269.03
2023-03-31T17:31:13.522Z,95268.94
2023-03-31T17:33:40.402Z,95266.09
2023-03-31T17:36:07.165Z,95275.84
2023-03-31T17:38:34.616Z,95264.50
2023-03-31T17:41:09.689Z,95279.88
2023-03-31T17:43:37.943Z,95283.72
2023-03-31T17:46:13.151Z,95284.50
2023-03-31T17:48:41.319Z,95290.94
2023-03-31T17:51:10.800Z,95289.16
2023-03-31T17:53:37.273Z,95289.94
2023-03-31T17:56:05.576Z,95297.81
2023-03-31T17:58:32.842Z,95300.66
2023-03-31T18:00:59.699Z,95308.13
2023-03-31T18:03:29.360Z,95303.91
2023-03-31T18:05:56.059Z,95311.41
2023-03-31T18:08:23.050Z,95315.66
2023-03-31T18:10:49.575Z,95308.97
2023-03-31T18:13:16.536Z,95319.47
2023-03-31T18:15:51.460Z,95334.03
2023-03-31T18:18:18.711Z,95326.22
2023-03-31T18:20:45.422Z,95326.03
2023-03-31T18:23:12.265Z,95321.63
2023-03-31T18:25:38.950Z,95325.66
2023-03-31T18:28:05.455Z,95326.66
2023-03-31T18:30:32.185Z,95323.59
2023-03-31T18:32:59.061Z,95324.03
2023-03-31T18:35:25.869Z,95331.09
2023-03-31T18:37:52.446Z,95325.44
2023-03-31T18:40:19.471Z,95323.84
2023-03-31T18:42:45.944Z,95317.59
2023-03-31T18:45:12.991Z,95319.22
2023-03-31T18:47:39.999Z,95320.25
2023-03-31T18:50:07.199Z,95321.06
2023-03-31T18:52:35.425Z,95327.50
2023-03-31T18:55:03.070Z,95326.91
2023-03-31T18:57:29.952Z,95335.38
2023-03-31T18:59:56.615Z,95340.81
2023-03-31T19:02:23.083Z,95335.38
2023-03-31T19:04:49.850Z,95346.25
2023-03-31T19:07:17.580Z,95352.50
2023-03-31T19:09:44.127Z,95350.25
2023-03-31T19:12:11.845Z,95348.22
2023-03-31T19:14:38.804Z,95348.63
2023-03-31T19:17:05.341Z,95353.84
2023-03-31T19:19:32.067Z,95351.03
2023-03-31T19:21:58.631Z,95354.28
2023-03-31T19:24:25.128Z,95355.53
2023-03-31T19:26:51.586Z,95364.78
2023-03-31T19:29:18.074Z,95362.59
2023-03-31T19:31:47.650Z,95357.56
2023-03-31T19:34:16.498Z,95368.78
2023-03-31T19:36:43.287Z,95350.28
2023-03-31T19:39:11.128Z,95364.78
2023-03-31T19:41:37.569Z,95363.38
2023-03-31T19:44:04.088Z,95361.34
2023-03-31T19:46:30.698Z,95357.56
2023-03-31T19:48:57.222Z,95360.38
2023-03-31T19:51:23.705Z,95354.94
2023-03-31T19:53:50.163Z,95353.72
2023-03-31T19:56:17.765Z,95357.94
2023-03-31T19:58:45.218Z,95354.13
2023-03-31T20:01:23.385Z,95362.78
2023-03-31T20:03:53.040Z,95359.53
2023-03-31T20:06:23.787Z,95357.91
2023-03-31T20:08:55.544Z,95351.28
2023-03-31T20:11:23.077Z,95354.13
2023-03-31T20:13:49.587Z,95358.13
2023-03-31T20:16:19.194Z,95360.97
2023-03-31T20:18:51.368Z,95357.72
2023-03-31T20:21:20.568Z,95357.94
2023-03-31T20:23:47.853Z,95355.91
2023-03-31T20:26:20.875Z,95350.47
2023-03-31T20:28:48.288Z,95352.69
2023-03-31T20:31:20.430Z,95358.72
2023-03-31T20:33:47.909Z,95351.25
2023-03-31T20:36:20.475Z,95353.50
2023-03-31T20:38:51.158Z,95349.25
2023-03-31T20:41:20.784Z,95347.63
2023-03-31T20:43:48.216Z,95343.00
2023-03-31T20:46:14.812Z,95349.06
2023-03-31T20:48:44.725Z,95346.03
2023-03-31T20:51:14.754Z,95353.31
2023-03-31T20:53:46.626Z,95348.44
2023-03-31T20:56:21.104Z,95355.47
2023-03-31T20:58:49.978Z,95365.75
2023-03-31T21:01:18.083Z,95359.31
2023-03-31T21:03:44.804Z,95373.59
2023-03-31T21:06:13.739Z,95376.03
2023-03-31T21:08:43.104Z,95370.41
2023-03-31T21:11:09.922Z,95381.25
2023-03-31T21:13:36.397Z,95378.81
2023-03-31T21:16:04.359Z,95381.03
2023-03-31T21:18:33.139Z,95390.09
2023-03-31T21:21:05.786Z,95380.19
2023-03-31T21:23:32.525Z,95387.06
2023-03-31T21:26:01.157Z,95385.06
2023-03-31T21:28:30.935Z,95384.06
2023-03-31T21:31:03.611Z,95384.84
2023-03-31T21:33:31.737Z,95380.63
2023-03-31T21:35:59.105Z,95388.75
2023-03-31T21:38:26.419Z,95390.47
2023-03-31T21:40:54.358Z,95386.38
2023-03-31T21:43:22.318Z,95387.31
2023-03-31T21:45:50.199Z,95385.56
2023-03-31T21:48:16.940Z,95380.31
2023-03-31T21:50:45.993Z,95383.31
2023-03-31T21:53:12.796Z,95386.84
2023-03-31T21:55:39.243Z,95380.72
2023-03-31T21:58:06.035Z,95388.56
2023-03-31T22:00:32.906Z,95387.78
2023-03-31T22:03:16.236Z,95390.06
2023-03-31T22:05:45.833Z,95383.41
2023-03-31T22:08:12.349Z,95389.22
2023-03-31T22:10:38.737Z,95388.63
2023-03-31T22:13:05.306Z,95381.19
2023-03-31T22:15:32.009Z,95386.84
2023-03-31T22:17:58.656Z,95379.16
2023-03-31T22:20:25.228Z,95381.78
2023-03-31T22:22:51.823Z,95385.38
2023-03-31T22:25:18.223Z,95384.56
2023-03-31T22:27:44.620Z,95386.25
2023-03-31T22:30:11.579Z,95387.78
2023-03-31T22:32:38.051Z,95390.94
2023-03-31T22:35:04.841Z,95391.00
2023-03-31T22:37:31.597Z,95388.09
2023-03-31T22:39:58.265Z,95389.47
2023-03-31T22:42:24.681Z,95384.94
2023-03-31T22:44:51.178Z,95376.41
2023-03-31T22:47:17.915Z,95378.78
2023-03-31T22:49:44.493Z,95376.25
2023-03-31T22:52:11.176Z,95379.53
2023-03-31T22:54:40.110Z,95378.69
2023-03-31T22:57:07.645Z,95368.47
2023-03-31T22:59:34.134Z,95368.88
2023-03-31T23:02:00.566Z,95371.91
2023-03-31T23:04:27.396Z,95374.94
2023-03-31T23:06:55.065Z,95377.66
2023-03-31T23:09:23.687Z,95376.56
2023-03-31T23:11:50.550Z,95380.09
2023-03-31T23:14:17.282Z,95380.00
2023-03-31T23:16:43.936Z,95375.31
2023-03-31T23:19:11.289Z,95385.97
2023-03-31T23:21:38.248Z,95386.56
2023-03-31T23:24:05.869Z,95395.16
2023-03-31T23:26:33.655Z,95392.22
2023-03-31T23:29:00.393Z,95377.72
2023-03-31T23:31:30.219Z,95384.84
2023-03-31T23:33:58.491Z,95384.94
2023-03-31T23:36:25.814Z,95380.16
2023-03-31T23:38:54.137Z,95378.34
2023-03-31T23:41:21.159Z,95379.34
2023-03-31T23:43:47.608Z,95375.94
2023-03-31T23:46:14.108Z,95371.94
2023-03-31T23:48:40.800Z,95374.88
2023-03-31T23:51:09.753Z,95376.97
2023-03-31T23:53:36.344Z,95370.09
2023-03-31T23:56:09.020Z,95372.53
2023-03-31T23:58:36.714Z,95374.97
